createdAt,value
2023-05-24T00:00:01.601Z,4.40
2023-05-24T00:01:02.974Z,4.50
2023-05-24T00:02:06.740Z,3.77
2023-05-24T00:03:08.584Z,4.97
2023-05-24T00:04:11.131Z,4.80
2023-05-24T00:05:14.688Z,4.20
2023-05-24T00:06:17.113Z,3.80
2023-05-24T00:07:18.752Z,4.23
2023-05-24T00:08:20.337Z,4.17
2023-05-24T00:09:21.852Z,4.73
2023-05-24T00:10:23.392Z,4.03
2023-05-24T00:11:24.767Z,3.80
2023-05-24T00:12:26.252Z,4.20
2023-05-24T00:13:27.750Z,4.30
2023-05-24T00:14:29.262Z,4.17
2023-05-24T00:15:30.773Z,4.10
2023-05-24T00:16:32.347Z,4.30
2023-05-24T00:17:34.807Z,4.40
2023-05-24T00:18:40.925Z,4.83
2023-05-24T00:19:42.742Z,4.30
2023-05-24T00:20:44.979Z,4.20
2023-05-24T00:21:46.812Z,4.20
2023-05-24T00:22:48.234Z,4.17
2023-05-24T00:23:51.733Z,4.03
2023-05-24T00:24:53.186Z,4.13
2023-05-24T00:25:54.610Z,4.00
2023-05-24T00:26:56.087Z,4.67
2023-05-24T00:27:57.444Z,4.50
2023-05-24T00:29:00.337Z,4.40
2023-05-24T00:30:02.057Z,4.57
2023-05-24T00:31:03.449Z,4.33
2023-05-24T00:32:05.148Z,4.00
2023-05-24T00:33:06.696Z,4.00
2023-05-24T00:34:08.052Z,4.00
2023-05-24T00:35:09.626Z,4.30
2023-05-24T00:36:11.102Z,4.43
2023-05-24T00:37:12.944Z,4.57
2023-05-24T00:38:14.433Z,4.30
2023-05-24T00:39:16.102Z,3.67
2023-05-24T00:40:17.661Z,3.90
2023-05-24T00:41:19.077Z,4.50
2023-05-24T00:42:20.457Z,4.00
2023-05-24T00:43:21.976Z,4.20
2023-05-24T00:44:23.414Z,4.43
2023-05-24T00:45:24.881Z,4.23
2023-05-24T00:46:29.548Z,4.27
2023-05-24T00:47:31.100Z,4.17
2023-05-24T00:48:32.672Z,4.87
2023-05-24T00:49:34.682Z,4.17
2023-05-24T00:50:36.847Z,4.03
2023-05-24T00:51:38.520Z,4.37
2023-05-24T00:52:41.249Z,4.53
2023-05-24T00:53:44.540Z,4.80
2023-05-24T00:54:46.368Z,4.77
2023-05-24T00:55:47.831Z,4.00
2023-05-24T00:56:49.610Z,4.10
2023-05-24T00:57:52.275Z,4.07
2023-05-24T00:58:55.905Z,4.17
2023-05-24T00:59:57.370Z,4.93
2023-05-24T01:00:59.762Z,4.13
2023-05-24T01:02:01.285Z,4.70
2023-05-24T01:03:02.912Z,4.33
2023-05-24T01:04:05.598Z,4.53
2023-05-24T01:05:07.233Z,4.77
2023-05-24T01:06:10.058Z,4.70
2023-05-24T01:07:18.028Z,4.57
2023-05-24T01:08:24.666Z,4.27
2023-05-24T01:09:33.233Z,4.70
2023-05-24T01:10:37.466Z,4.63
2023-05-24T01:11:45.845Z,4.77
2023-05-24T01:12:56.578Z,4.60
2023-05-24T01:14:14.489Z,3.87
2023-05-24T01:15:21.645Z,4.90
2023-05-24T01:16:26.016Z,4.10
2023-05-24T01:17:31.408Z,4.37
2023-05-24T01:18:33.658Z,4.43
2023-05-24T01:19:38.008Z,4.10
2023-05-24T01:20:40.028Z,4.47
2023-05-24T01:21:41.521Z,4.13
2023-05-24T01:23:03.120Z,4.07
2023-05-24T01:24:14.188Z,3.70
2023-05-24T01:25:34.251Z,4.33
2023-05-24T01:26:35.912Z,4.00
2023-05-24T01:27:37.357Z,3.87
2023-05-24T01:28:39.233Z,4.30
2023-05-24T01:29:40.652Z,4.50
2023-05-24T01:30:42.756Z,4.20
2023-05-24T01:31:44.757Z,4.07
2023-05-24T01:32:46.280Z,4.50
2023-05-24T01:33:47.848Z,3.97
2023-05-24T01:34:49.218Z,4.40
2023-05-24T01:35:51.099Z,4.17
2023-05-24T01:36:52.605Z,4.20
2023-05-24T01:37:53.965Z,4.63
2023-05-24T01:38:55.711Z,4.33
2023-05-24T01:39:57.177Z,4.07
2023-05-24T01:41:01.303Z,4.83
2023-05-24T01:42:19.466Z,3.97
2023-05-24T01:43:31.539Z,4.90
2023-05-24T01:44:42.643Z,4.40
2023-05-24T01:45:58.881Z,3.97
2023-05-24T01:47:18.954Z,4.20
2023-05-24T01:48:38.944Z,4.10
2023-05-24T01:49:43.928Z,4.23
2023-05-24T01:50:48.514Z,3.77
2023-05-24T01:52:01.974Z,4.30
2023-05-24T01:53:12.752Z,3.87
2023-05-24T01:54:14.403Z,4.17
2023-05-24T01:55:17.223Z,3.97
2023-05-24T01:56:20.293Z,4.57
2023-05-24T01:57:22.865Z,3.77
2023-05-24T01:58:25.942Z,3.93
2023-05-24T01:59:28.385Z,4.07
2023-05-24T02:00:31.010Z,4.67
2023-05-24T02:01:32.782Z,4.03
2023-05-24T02:02:34.364Z,4.00
2023-05-24T02:03:38.197Z,3.90
2023-05-24T02:04:40.035Z,4.47
2023-05-24T02:05:41.630Z,3.97
2023-05-24T02:06:43.066Z,4.10
2023-05-24T02:07:44.480Z,4.23
2023-05-24T02:08:46.537Z,4.03
2023-05-24T02:09:47.950Z,4.43
2023-05-24T02:10:49.801Z,3.97
2023-05-24T02:11:52.860Z,3.90
2023-05-24T02:12:54.410Z,4.17
2023-05-24T02:13:55.819Z,4.40
2023-05-24T02:14:57.350Z,4.87
2023-05-24T02:15:58.779Z,4.57
2023-05-24T02:17:00.733Z,4.60
2023-05-24T02:18:02.462Z,4.30
2023-05-24T02:19:04.334Z,4.33
2023-05-24T02:20:06.972Z,4.40
2023-05-24T02:21:08.509Z,4.83
2023-05-24T02:22:10.054Z,4.10
2023-05-24T02:23:11.707Z,4.73
2023-05-24T02:24:13.189Z,4.30
2023-05-24T02:25:14.958Z,4.33
2023-05-24T02:26:17.743Z,4.20
2023-05-24T02:27:19.823Z,4.37
2023-05-24T02:28:21.534Z,4.07
2023-05-24T02:29:23.282Z,4.27
2023-05-24T02:30:24.992Z,4.70
2023-05-24T02:31:28.741Z,4.40
2023-05-24T02:32:31.313Z,4.33
2023-05-24T02:33:33.712Z,3.77
2023-05-24T02:34:35.679Z,4.30
2023-05-24T02:35:37.077Z,4.30
2023-05-24T02:36:38.621Z,4.30
2023-05-24T02:37:40.645Z,4.10
2023-05-24T02:38:42.096Z,4.53
2023-05-24T02:39:43.689Z,5.23
2023-05-24T02:40:45.252Z,3.83
2023-05-24T02:41:46.600Z,4.30
2023-05-24T02:42:48.141Z,4.07
2023-05-24T02:43:49.871Z,3.90
2023-05-24T02:44:52.571Z,4.13
2023-05-24T02:45:54.060Z,4.37
2023-05-24T02:46:55.627Z,4.53
2023-05-24T02:47:57.085Z,4.40
2023-05-24T02:48:58.819Z,4.67
2023-05-24T02:50:00.867Z,3.90
2023-05-24T02:51:03.304Z,3.50
2023-05-24T02:52:05.268Z,4.13
2023-05-24T02:53:06.824Z,3.90
2023-05-24T02:54:08.272Z,4.57
2023-05-24T02:55:09.847Z,4.00
2023-05-24T02:56:13.684Z,4.20
2023-05-24T02:57:16.676Z,3.73
2023-05-24T02:58:18.647Z,5.13
2023-05-24T02:59:23.161Z,3.90
2023-05-24T03:00:24.733Z,3.90
2023-05-24T03:01:26.868Z,3.87
2023-05-24T03:02:29.873Z,4.13
2023-05-24T03:03:31.739Z,3.97
2023-05-24T03:04:33.336Z,4.00
2023-05-24T03:05:34.811Z,3.43
2023-05-24T03:06:36.315Z,4.00
2023-05-24T03:07:37.741Z,3.80
2023-05-24T03:08:41.423Z,3.90
2023-05-24T03:09:42.972Z,3.63
2023-05-24T03:10:44.603Z,3.50
2023-05-24T03:11:47.517Z,4.10
2023-05-24T03:12:48.908Z,3.93
2023-05-24T03:13:50.447Z,3.90
2023-05-24T03:14:51.855Z,4.10
2023-05-24T03:15:53.442Z,4.33
2023-05-24T03:16:54.879Z,4.00
2023-05-24T03:17:57.001Z,4.57
2023-05-24T03:18:59.945Z,3.80
2023-05-24T03:20:02.292Z,4.17
2023-05-24T03:21:06.004Z,3.90
2023-05-24T03:22:08.455Z,4.07
2023-05-24T03:23:10.608Z,3.47
2023-05-24T03:24:13.178Z,3.83
2023-05-24T03:25:14.716Z,4.00
2023-05-24T03:26:16.395Z,3.70
2023-05-24T03:27:17.764Z,4.53
2023-05-24T03:28:22.216Z,4.50
2023-05-24T03:29:23.697Z,3.83
2023-05-24T03:30:26.384Z,4.13
2023-05-24T03:31:29.967Z,3.53
2023-05-24T03:32:31.918Z,4.07
2023-05-24T03:33:33.556Z,3.80
2023-05-24T03:34:34.951Z,3.80
2023-05-24T03:35:36.803Z,3.70
2023-05-24T03:36:38.251Z,3.60
2023-05-24T03:37:39.668Z,4.03
2023-05-24T03:38:41.087Z,3.87
2023-05-24T03:39:42.470Z,3.80
2023-05-24T03:41:04.107Z,3.67
2023-05-24T03:42:05.626Z,3.87
2023-05-24T03:43:07.296Z,4.17
2023-05-24T03:44:17.593Z,3.30
2023-05-24T03:45:26.925Z,3.50
2023-05-24T03:46:32.313Z,3.80
2023-05-24T03:47:35.479Z,3.50
2023-05-24T03:48:37.784Z,4.10
2023-05-24T03:49:39.393Z,3.60
2023-05-24T03:50:41.037Z,3.70
2023-05-24T03:51:42.614Z,4.27
2023-05-24T03:52:44.027Z,3.60
2023-05-24T03:53:48.278Z,3.83
2023-05-24T03:54:49.978Z,3.93
2023-05-24T03:55:51.890Z,3.83
2023-05-24T03:56:53.560Z,3.80
2023-05-24T03:57:54.927Z,3.60
2023-05-24T03:59:00.495Z,3.77
2023-05-24T04:00:01.985Z,3.47
2023-05-24T04:01:03.914Z,3.67
2023-05-24T04:02:05.676Z,3.83
2023-05-24T04:03:07.391Z,3.80
2023-05-24T04:04:09.073Z,4.20
2023-05-24T04:05:11.093Z,3.40
2023-05-24T04:06:15.064Z,4.10
2023-05-24T04:07:17.759Z,3.20
2023-05-24T04:08:19.270Z,3.97
2023-05-24T04:09:21.259Z,3.47
2023-05-24T04:10:23.029Z,4.07
2023-05-24T04:11:28.034Z,3.53
2023-05-24T04:12:29.464Z,4.37
2023-05-24T04:13:31.088Z,3.60
2023-05-24T04:14:33.528Z,3.20
2023-05-24T04:15:35.019Z,3.57
2023-05-24T04:16:39.645Z,3.07
2023-05-24T04:17:42.549Z,3.20
2023-05-24T04:18:45.609Z,3.07
2023-05-24T04:19:47.149Z,3.23
2023-05-24T04:20:48.550Z,3.57
2023-05-24T04:21:50.380Z,3.60
2023-05-24T04:22:52.115Z,3.47
2023-05-24T04:23:53.537Z,3.43
2023-05-24T04:24:55.723Z,3.53
2023-05-24T04:25:57.156Z,3.63
2023-05-24T04:26:58.965Z,3.67
2023-05-24T04:28:02.387Z,3.70
2023-05-24T04:29:08.091Z,3.70
2023-05-24T04:30:10.454Z,3.23
2023-05-24T04:31:11.909Z,3.40
2023-05-24T04:32:14.773Z,3.47
2023-05-24T04:33:16.890Z,3.57
2023-05-24T04:34:18.484Z,3.80
2023-05-24T04:35:20.364Z,3.37
2023-05-24T04:36:25.145Z,3.80
2023-05-24T04:37:27.528Z,3.60
2023-05-24T04:38:29.840Z,2.93
2023-05-24T04:39:31.215Z,4.00
2023-05-24T04:40:32.670Z,3.20
2023-05-24T04:41:35.943Z,3.07
2023-05-24T04:42:37.358Z,3.53
2023-05-24T04:43:38.786Z,3.90
2023-05-24T04:44:40.516Z,3.90
2023-05-24T04:45:41.930Z,3.23
2023-05-24T04:46:43.349Z,3.30
2023-05-24T04:47:44.977Z,3.80
2023-05-24T04:48:46.377Z,3.47
2023-05-24T04:49:47.871Z,3.83
2023-05-24T04:50:50.693Z,3.17
2023-05-24T04:51:53.427Z,4.20
2023-05-24T04:52:56.539Z,3.70
2023-05-24T04:53:57.976Z,3.57
2023-05-24T04:54:59.384Z,4.10
2023-05-24T04:56:00.861Z,3.77
2023-05-24T04:57:02.282Z,3.20
2023-05-24T04:58:04.293Z,3.70
2023-05-24T04:59:06.264Z,3.33
2023-05-24T05:00:08.176Z,3.37
2023-05-24T05:01:09.613Z,3.80
2023-05-24T05:02:11.168Z,3.57
2023-05-24T05:03:12.882Z,3.23
2023-05-24T05:04:14.375Z,3.47
2023-05-24T05:05:16.270Z,3.63
2023-05-24T05:06:17.679Z,3.53
2023-05-24T05:07:19.041Z,3.50
2023-05-24T05:08:20.649Z,3.77
2023-05-24T05:09:22.750Z,3.53
2023-05-24T05:10:24.145Z,3.33
2023-05-24T05:11:26.023Z,3.43
2023-05-24T05:12:27.402Z,3.40
2023-05-24T05:13:28.864Z,3.90
2023-05-24T05:14:30.220Z,3.10
2023-05-24T05:15:32.566Z,3.63
2023-05-24T05:16:34.050Z,3.77
2023-05-24T05:17:35.493Z,3.23
2023-05-24T05:18:37.213Z,3.80
2023-05-24T05:19:38.688Z,3.20
2023-05-24T05:20:40.241Z,3.60
2023-05-24T05:21:41.813Z,2.80
2023-05-24T05:22:47.247Z,3.43
2023-05-24T05:23:48.664Z,3.50
2023-05-24T05:24:50.113Z,3.63
2023-05-24T05:25:51.604Z,3.67
2023-05-24T05:26:53.100Z,3.53
2023-05-24T05:27:55.611Z,3.27
2023-05-24T05:28:57.389Z,3.53
2023-05-24T05:29:58.830Z,3.50
2023-05-24T05:31:00.238Z,3.43
2023-05-24T05:32:01.734Z,3.40
2023-05-24T05:33:06.154Z,3.20
2023-05-24T05:34:10.841Z,3.57
2023-05-24T05:35:12.243Z,3.90
2023-05-24T05:36:13.720Z,3.63
2023-05-24T05:37:15.092Z,3.17
2023-05-24T05:38:16.470Z,3.73
2023-05-24T05:39:17.837Z,3.17
2023-05-24T05:40:19.518Z,3.83
2023-05-24T05:41:20.919Z,3.30
2023-05-24T05:42:22.585Z,3.80
2023-05-24T05:43:25.139Z,3.60
2023-05-24T05:44:26.504Z,3.60
2023-05-24T05:45:27.980Z,4.20
2023-05-24T05:46:29.449Z,3.37
2023-05-24T05:47:31.129Z,3.70
2023-05-24T05:48:32.571Z,3.90
2023-05-24T05:49:36.365Z,3.43
2023-05-24T05:50:37.727Z,3.97
2023-05-24T05:51:39.408Z,3.00
2023-05-24T05:52:41.029Z,3.30
2023-05-24T05:53:42.488Z,3.30
2023-05-24T05:54:43.864Z,3.33
2023-05-24T05:55:45.264Z,3.93
2023-05-24T05:56:47.921Z,3.40
2023-05-24T05:57:49.379Z,3.53
2023-05-24T05:58:50.751Z,3.47
2023-05-24T05:59:52.384Z,3.40
2023-05-24T06:00:53.833Z,3.47
2023-05-24T06:01:55.365Z,3.63
2023-05-24T06:02:56.859Z,3.97
2023-05-24T06:03:58.400Z,3.10
2023-05-24T06:05:00.418Z,3.40
2023-05-24T06:06:01.890Z,3.20
2023-05-24T06:07:03.306Z,3.47
2023-05-24T06:08:04.857Z,3.50
2023-05-24T06:09:06.485Z,3.30
2023-05-24T06:10:07.973Z,3.03
2023-05-24T06:11:09.367Z,3.80
2023-05-24T06:12:10.911Z,3.37
2023-05-24T06:13:13.079Z,3.80
2023-05-24T06:14:18.211Z,3.73
2023-05-24T06:15:22.838Z,4.20
2023-05-24T06:16:24.310Z,3.70
2023-05-24T06:17:25.824Z,3.13
2023-05-24T06:18:27.708Z,2.97
2023-05-24T06:19:29.053Z,3.70
2023-05-24T06:20:30.606Z,3.43
2023-05-24T06:21:32.189Z,3.50
2023-05-24T06:22:33.549Z,3.50
2023-05-24T06:23:34.930Z,3.33
2023-05-24T06:24:36.592Z,3.10
2023-05-24T06:25:38.791Z,3.10
2023-05-24T06:26:40.214Z,3.23
2023-05-24T06:27:41.734Z,3.87
2023-05-24T06:28:43.275Z,3.57
2023-05-24T06:29:44.834Z,3.20
2023-05-24T06:30:47.472Z,3.33
2023-05-24T06:31:49.473Z,3.37
2023-05-24T06:32:51.191Z,3.07
2023-05-24T06:34:03.856Z,3.37
2023-05-24T06:35:06.192Z,3.03
2023-05-24T06:36:07.621Z,3.33
2023-05-24T06:37:15.079Z,2.70
2023-05-24T06:38:17.766Z,3.07
2023-05-24T06:39:19.218Z,3.43
2023-05-24T06:40:20.781Z,3.17
2023-05-24T06:41:22.751Z,3.77
2023-05-24T06:42:24.087Z,3.37
2023-05-24T06:43:26.150Z,3.20
2023-05-24T06:44:34.330Z,3.50
2023-05-24T06:45:35.725Z,3.53
2023-05-24T06:46:37.477Z,3.63
2023-05-24T06:47:39.005Z,3.30
2023-05-24T06:48:40.435Z,2.90
2023-05-24T06:49:42.004Z,2.90
2023-05-24T06:50:43.706Z,3.60
2023-05-24T06:51:46.854Z,3.43
2023-05-24T06:52:48.374Z,3.13
2023-05-24T06:53:50.066Z,3.90
2023-05-24T06:54:52.165Z,3.50
2023-05-24T06:55:55.473Z,3.17
2023-05-24T06:56:58.954Z,3.27
2023-05-24T06:58:00.683Z,3.33
2023-05-24T06:59:02.207Z,3.10
2023-05-24T07:00:08.737Z,3.90
2023-05-24T07:01:10.371Z,3.40
2023-05-24T07:02:11.854Z,3.23
2023-05-24T07:03:13.438Z,3.10
2023-05-24T07:04:14.870Z,3.00
2023-05-24T07:05:16.376Z,3.33
2023-05-24T07:06:18.420Z,3.30
2023-05-24T07:07:20.608Z,3.03
2023-05-24T07:08:22.084Z,2.80
2023-05-24T07:09:23.872Z,3.63
2023-05-24T07:10:25.280Z,2.80
2023-05-24T07:11:27.558Z,2.90
2023-05-24T07:12:29.047Z,2.80
2023-05-24T07:13:30.428Z,2.97
2023-05-24T07:14:31.935Z,4.23
2023-05-24T07:15:36.504Z,2.80
2023-05-24T07:16:41.018Z,3.07
2023-05-24T07:17:42.613Z,3.20
2023-05-24T07:18:44.026Z,3.47
2023-05-24T07:19:45.384Z,3.00
2023-05-24T07:20:47.085Z,3.13
2023-05-24T07:21:48.999Z,2.77
2023-05-24T07:22:50.505Z,3.30
2023-05-24T07:23:51.899Z,2.90
2023-05-24T07:24:53.265Z,2.87
2023-05-24T07:25:54.706Z,3.10
2023-05-24T07:26:57.536Z,2.90
2023-05-24T07:27:59.416Z,2.87
2023-05-24T07:29:00.839Z,3.27
2023-05-24T07:30:02.718Z,2.83
2023-05-24T07:31:04.632Z,2.90
2023-05-24T07:32:06.122Z,3.20
2023-05-24T07:33:08.035Z,2.77
2023-05-24T07:34:09.649Z,2.80
2023-05-24T07:35:12.940Z,3.33
2023-05-24T07:36:14.984Z,2.67
2023-05-24T07:37:17.518Z,2.83
2023-05-24T07:38:18.992Z,2.97
2023-05-24T07:39:20.447Z,2.50
2023-05-24T07:40:23.140Z,2.93
2023-05-24T07:41:27.899Z,2.80
2023-05-24T07:42:29.339Z,2.50
2023-05-24T07:43:30.868Z,3.30
2023-05-24T07:44:32.307Z,2.87
2023-05-24T07:45:34.144Z,2.83
2023-05-24T07:46:35.586Z,2.80
2023-05-24T07:47:37.457Z,3.10
2023-05-24T07:48:39.014Z,3.07
2023-05-24T07:49:42.949Z,2.90
2023-05-24T07:50:48.621Z,2.90
2023-05-24T07:51:50.154Z,3.03
2023-05-24T07:52:51.707Z,2.80
2023-05-24T07:53:53.091Z,2.87
2023-05-24T07:54:54.489Z,2.70
2023-05-24T07:55:56.384Z,2.60
2023-05-24T07:56:57.906Z,3.43
2023-05-24T07:57:59.488Z,2.93
2023-05-24T07:59:04.772Z,3.20
2023-05-24T08:00:12.824Z,3.10
2023-05-24T08:01:14.410Z,2.90
2023-05-24T08:02:16.937Z,2.60
2023-05-24T08:03:18.438Z,2.93
2023-05-24T08:04:20.007Z,3.10
2023-05-24T08:05:22.118Z,2.93
2023-05-24T08:06:24.169Z,3.10
2023-05-24T08:07:25.640Z,2.80
2023-05-24T08:08:27.123Z,2.50
2023-05-24T08:09:29.823Z,2.80
2023-05-24T08:10:31.298Z,3.10
2023-05-24T08:11:36.354Z,2.97
2023-05-24T08:12:39.170Z,2.53
2023-05-24T08:13:40.526Z,3.00
2023-05-24T08:14:41.913Z,3.07
2023-05-24T08:15:43.523Z,2.60
2023-05-24T08:16:45.318Z,3.13
2023-05-24T08:17:46.867Z,2.93
2023-05-24T08:18:48.299Z,3.00
2023-05-24T08:19:49.728Z,2.40
2023-05-24T08:20:51.954Z,2.20
2023-05-24T08:21:56.755Z,2.57
2023-05-24T08:22:58.145Z,2.77
2023-05-24T08:24:00.543Z,3.23
2023-05-24T08:25:02.030Z,2.70
2023-05-24T08:26:03.469Z,2.47
2023-05-24T08:27:05.052Z,2.50
2023-05-24T08:28:06.580Z,2.73
2023-05-24T08:29:08.609Z,3.27
2023-05-24T08:30:10.992Z,2.53
2023-05-24T08:31:12.561Z,3.80
2023-05-24T08:32:14.437Z,2.80
2023-05-24T08:33:15.899Z,2.63
2023-05-24T08:34:18.066Z,3.10
2023-05-24T08:35:21.510Z,2.80
2023-05-24T08:36:23.547Z,3.00
2023-05-24T08:37:25.028Z,2.50
2023-05-24T08:38:26.474Z,2.77
2023-05-24T08:39:27.919Z,3.00
2023-05-24T08:40:29.401Z,2.53
2023-05-24T08:41:35.524Z,2.77
2023-05-24T08:42:38.282Z,2.80
2023-05-24T08:43:39.645Z,2.97
2023-05-24T08:45:01.858Z,2.87
2023-05-24T08:46:04.257Z,2.80
2023-05-24T08:47:05.946Z,2.77
2023-05-24T08:48:07.898Z,3.80
2023-05-24T08:49:12.581Z,2.67
2023-05-24T08:50:14.032Z,2.83
2023-05-24T08:51:16.087Z,2.93
2023-05-24T08:52:17.762Z,3.00
2023-05-24T08:53:21.766Z,2.30
2023-05-24T08:54:23.386Z,2.70
2023-05-24T08:55:25.096Z,2.60
2023-05-24T08:56:27.664Z,3.13
2023-05-24T08:57:30.742Z,3.07
2023-05-24T08:58:32.483Z,3.43
2023-05-24T08:59:33.861Z,2.47
2023-05-24T09:00:35.488Z,2.87
2023-05-24T09:01:38.869Z,2.77
2023-05-24T09:02:41.940Z,3.07
2023-05-24T09:03:46.152Z,3.00
2023-05-24T09:04:48.962Z,2.50
2023-05-24T09:05:50.600Z,2.97
2023-05-24T09:06:52.872Z,2.90
2023-05-24T09:07:55.682Z,3.07
2023-05-24T09:08:58.712Z,3.17
2023-05-24T09:10:06.959Z,3.00
2023-05-24T09:11:08.950Z,3.03
2023-05-24T09:12:14.951Z,2.80
2023-05-24T09:13:19.009Z,3.33
2023-05-24T09:14:20.381Z,3.00
2023-05-24T09:15:21.806Z,2.77
2023-05-24T09:16:23.624Z,3.33
2023-05-24T09:17:25.165Z,2.90
2023-05-24T09:18:26.613Z,2.43
2023-05-24T09:19:29.050Z,2.60
2023-05-24T09:20:30.650Z,2.40
2023-05-24T09:21:32.785Z,2.70
2023-05-24T09:22:36.215Z,2.63
2023-05-24T09:23:40.850Z,2.70
2023-05-24T09:24:43.067Z,3.70
2023-05-24T09:25:45.108Z,2.90
2023-05-24T09:26:48.835Z,3.40
2023-05-24T09:27:50.930Z,2.93
2023-05-24T09:28:54.584Z,2.53
2023-05-24T09:29:56.228Z,2.83
2023-05-24T09:31:05.323Z,2.60
2023-05-24T09:32:08.700Z,2.50
2023-05-24T09:33:11.334Z,2.63
2023-05-24T09:34:15.184Z,3.67
2023-05-24T09:35:16.567Z,2.87
2023-05-24T09:36:18.275Z,2.83
2023-05-24T09:37:26.717Z,2.57
2023-05-24T09:38:30.649Z,2.80
2023-05-24T09:39:32.106Z,3.07
2023-05-24T09:40:33.534Z,3.37
2023-05-24T09:41:35.643Z,3.53
2023-05-24T09:42:38.130Z,2.90
2023-05-24T09:43:49.653Z,2.50
2023-05-24T09:45:00.468Z,3.23
2023-05-24T09:46:03.425Z,2.43
2023-05-24T09:47:07.322Z,2.77
2023-05-24T09:48:12.603Z,3.53
2023-05-24T09:49:14.115Z,2.50
2023-05-24T09:50:17.445Z,2.60
2023-05-24T09:51:19.788Z,2.70
2023-05-24T09:52:21.985Z,2.30
2023-05-24T09:53:23.896Z,2.60
2023-05-24T09:54:28.003Z,3.20
2023-05-24T09:55:29.499Z,2.60
2023-05-24T09:56:33.139Z,2.47
2023-05-24T09:57:34.537Z,2.53
2023-05-24T09:58:36.192Z,3.13
2023-05-24T09:59:39.820Z,2.50
2023-05-24T10:00:42.107Z,2.77
2023-05-24T10:01:44.375Z,2.93
2023-05-24T10:02:53.350Z,2.97
2023-05-24T10:03:56.434Z,3.20
2023-05-24T10:05:00.551Z,2.33
2023-05-24T10:06:04.859Z,2.90
2023-05-24T10:07:06.985Z,2.40
2023-05-24T10:08:09.409Z,2.30
2023-05-24T10:09:11.058Z,2.70
2023-05-24T10:10:12.401Z,2.40
2023-05-24T10:11:13.785Z,2.40
2023-05-24T10:12:15.580Z,2.57
2023-05-24T10:13:17.751Z,2.10
2023-05-24T10:14:19.486Z,2.73
2023-05-24T10:15:20.878Z,2.20
2023-05-24T10:16:22.314Z,2.97
2023-05-24T10:17:24.072Z,2.43
2023-05-24T10:18:25.465Z,2.40
2023-05-24T10:19:27.185Z,2.67
2023-05-24T10:20:28.716Z,2.57
2023-05-24T10:21:31.605Z,2.27
2023-05-24T10:22:37.315Z,2.60
2023-05-24T10:23:39.337Z,2.50
2023-05-24T10:24:44.357Z,2.13
2023-05-24T10:25:50.053Z,2.30
2023-05-24T10:26:52.782Z,2.50
2023-05-24T10:27:57.073Z,2.60
2023-05-24T10:29:04.686Z,2.23
2023-05-24T10:30:35.822Z,2.30
2023-05-24T10:31:38.713Z,1.97
2023-05-24T10:32:40.921Z,2.30
2023-05-24T10:33:43.368Z,2.47
2023-05-24T10:34:45.600Z,2.30
2023-05-24T10:35:47.222Z,2.40
2023-05-24T10:36:48.733Z,2.50
2023-05-24T10:37:50.440Z,3.20
2023-05-24T10:38:52.387Z,2.83
2023-05-24T10:39:53.826Z,3.17
2023-05-24T10:40:55.274Z,2.60
2023-05-24T10:41:57.037Z,2.60
2023-05-24T10:42:58.588Z,2.60
2023-05-24T10:44:08.460Z,2.90
2023-05-24T10:45:22.979Z,3.00
2023-05-24T10:46:24.454Z,3.50
2023-05-24T10:47:28.545Z,3.30
2023-05-24T10:48:29.898Z,2.97
2023-05-24T10:49:32.612Z,2.80
2023-05-24T10:50:34.043Z,3.60
2023-05-24T10:51:38.178Z,2.83
2023-05-24T10:52:39.633Z,3.57
2023-05-24T10:53:41.358Z,3.10
2023-05-24T10:56:08.608Z,3.30
2023-05-24T10:57:10.022Z,2.90
2023-05-24T10:58:11.944Z,2.70
2023-05-24T10:59:45.326Z,3.03
2023-05-24T11:00:48.887Z,3.03
2023-05-24T11:01:57.824Z,2.57
2023-05-24T11:03:23.672Z,3.40
2023-05-24T11:04:25.701Z,3.03
2023-05-24T11:05:32.737Z,2.87
2023-05-24T11:06:53.186Z,2.70
2023-05-24T11:07:58.850Z,3.17
2023-05-24T11:09:00.430Z,2.90
2023-05-24T11:10:07.032Z,3.03
2023-05-24T11:11:24.485Z,3.20
2023-05-24T11:12:31.540Z,3.07
2023-05-24T11:13:33.743Z,3.00
2023-05-24T11:14:38.093Z,2.77
2023-05-24T11:15:39.863Z,2.90
2023-05-24T11:16:44.825Z,3.00
2023-05-24T11:18:04.994Z,2.80
2023-05-24T11:19:12.290Z,2.70
2023-05-24T11:20:15.474Z,2.97
2023-05-24T11:21:17.020Z,2.80
2023-05-24T11:22:20.163Z,2.83
2023-05-24T11:23:21.611Z,2.60
2023-05-24T11:24:23.463Z,2.93
2023-05-24T11:25:25.168Z,2.60
2023-05-24T11:26:26.531Z,2.70
2023-05-24T11:27:28.115Z,2.77
2023-05-24T11:28:29.810Z,3.00
2023-05-24T11:29:31.271Z,2.87
2023-05-24T11:30:32.913Z,2.47
2023-05-24T11:31:36.757Z,2.83
2023-05-24T11:32:42.529Z,2.80
2023-05-24T11:33:44.552Z,2.57
2023-05-24T11:34:49.634Z,2.70
2023-05-24T11:35:52.035Z,2.30
2023-05-24T11:36:55.082Z,2.67
2023-05-24T11:37:59.310Z,3.33
2023-05-24T11:39:01.325Z,2.60
2023-05-24T11:40:06.368Z,2.77
2023-05-24T11:41:08.033Z,2.60
2023-05-24T11:42:09.596Z,2.63
2023-05-24T11:43:16.646Z,2.40
2023-05-24T11:44:21.550Z,2.40
2023-05-24T11:45:23.067Z,2.23
2023-05-24T11:46:24.528Z,2.43
2023-05-24T11:47:26.006Z,2.70
2023-05-24T11:48:27.685Z,2.67
2023-05-24T11:49:29.649Z,2.70
2023-05-24T11:50:39.079Z,2.40
2023-05-24T11:51:50.142Z,2.13
2023-05-24T11:52:51.528Z,2.60
2023-05-24T11:53:54.740Z,2.53
2023-05-24T11:54:56.473Z,2.40
2023-05-24T11:55:57.843Z,2.40
2023-05-24T11:56:59.316Z,2.10
2023-05-24T11:58:01.869Z,2.20
2023-05-24T11:59:08.616Z,2.37
2023-05-24T12:00:16.838Z,3.00
2023-05-24T12:01:27.392Z,2.60
2023-05-24T12:02:31.762Z,2.80
2023-05-24T12:03:33.428Z,2.90
2023-05-24T12:04:35.429Z,3.00
2023-05-24T12:05:37.723Z,2.63
2023-05-24T12:06:40.442Z,2.60
2023-05-24T12:07:41.996Z,2.73
2023-05-24T12:08:43.350Z,2.77
2023-05-24T12:09:44.859Z,2.70
2023-05-24T12:10:48.487Z,2.33
2023-05-24T12:11:50.721Z,2.67
2023-05-24T12:12:52.140Z,2.30
2023-05-24T12:13:53.537Z,2.70
2023-05-24T12:14:55.500Z,3.17
2023-05-24T12:15:58.143Z,3.03
2023-05-24T12:17:00.824Z,2.70
2023-05-24T12:18:02.369Z,2.47
2023-05-24T12:19:09.523Z,2.13
2023-05-24T12:20:16.175Z,2.17
2023-05-24T12:21:17.776Z,2.57
2023-05-24T12:22:19.144Z,2.90
2023-05-24T12:23:21.670Z,2.77
2023-05-24T12:24:23.833Z,2.73
2023-05-24T12:25:27.059Z,2.80
2023-05-24T12:26:28.410Z,2.47
2023-05-24T12:27:31.368Z,2.33
2023-05-24T12:28:36.079Z,2.47
2023-05-24T12:29:39.625Z,2.50
2023-05-24T12:30:43.456Z,2.40
2023-05-24T12:31:47.477Z,2.83
2023-05-24T12:32:49.275Z,2.73
2023-05-24T12:33:52.145Z,3.00
2023-05-24T12:34:55.584Z,2.50
2023-05-24T12:35:57.588Z,2.43
2023-05-24T12:36:59.458Z,2.80
2023-05-24T12:38:00.966Z,2.83
2023-05-24T12:39:05.881Z,2.50
2023-05-24T12:40:20.797Z,2.43
2023-05-24T12:41:22.652Z,2.60
2023-05-24T12:42:24.112Z,2.93
2023-05-24T12:43:25.772Z,2.60
2023-05-24T12:44:28.690Z,2.33
2023-05-24T12:45:30.220Z,2.70
2023-05-24T12:46:31.725Z,2.60
2023-05-24T12:47:33.174Z,2.43
2023-05-24T12:48:35.180Z,2.77
2023-05-24T12:49:36.559Z,2.83
2023-05-24T12:50:38.208Z,2.50
2023-05-24T12:51:39.651Z,2.67
2023-05-24T12:52:41.008Z,2.87
2023-05-24T12:53:43.266Z,2.77
2023-05-24T12:54:44.656Z,2.60
2023-05-24T12:55:46.124Z,2.57
2023-05-24T12:56:47.602Z,2.40
2023-05-24T12:57:55.887Z,3.10
2023-05-24T12:58:57.317Z,3.17
2023-05-24T12:59:58.664Z,3.10
2023-05-24T13:01:00.092Z,2.83
2023-05-24T13:02:01.926Z,2.90
2023-05-24T13:03:03.472Z,2.37
2023-05-24T13:04:04.913Z,2.63
2023-05-24T13:05:07.408Z,2.40
2023-05-24T13:06:08.867Z,2.63
2023-05-24T13:07:10.432Z,2.90
2023-05-24T13:08:12.022Z,2.70
2023-05-24T13:09:14.167Z,3.00
2023-05-24T13:10:15.649Z,2.57
2023-05-24T13:11:17.016Z,2.87
2023-05-24T13:12:18.760Z,2.63
2023-05-24T13:13:20.147Z,3.00
2023-05-24T13:14:21.684Z,3.10
2023-05-24T13:15:24.066Z,2.73
2023-05-24T13:16:26.180Z,2.83
2023-05-24T13:17:27.655Z,3.20
2023-05-24T13:18:30.330Z,2.87
2023-05-24T13:19:31.751Z,3.40
2023-05-24T13:20:33.413Z,3.00
2023-05-24T13:21:35.616Z,3.07
2023-05-24T13:22:37.770Z,3.00
2023-05-24T13:23:40.234Z,3.50
2023-05-24T13:24:42.146Z,3.20
2023-05-24T13:25:44.914Z,3.00
2023-05-24T13:26:46.915Z,3.30
2023-05-24T13:27:48.438Z,3.00
2023-05-24T13:29:15.659Z,2.60
2023-05-24T13:30:12.479Z,2.90
2023-05-24T13:31:14.552Z,2.83
2023-05-24T13:32:15.968Z,3.47
2023-05-24T13:33:17.416Z,3.10
2023-05-24T13:34:19.100Z,2.90
2023-05-24T13:35:20.500Z,3.17
2023-05-24T13:36:21.983Z,2.90
2023-05-24T13:37:23.810Z,2.90
2023-05-24T13:38:25.519Z,2.37
2023-05-24T13:39:27.879Z,3.23
2023-05-24T13:40:29.397Z,3.00
2023-05-24T13:41:30.967Z,2.80
2023-05-24T13:42:32.489Z,3.20
2023-05-24T13:43:33.883Z,3.20
2023-05-24T13:44:35.351Z,3.27
2023-05-24T13:45:36.766Z,3.33
2023-05-24T13:46:39.019Z,3.10
2023-05-24T13:47:41.376Z,3.23
2023-05-24T13:48:43.068Z,2.70
2023-05-24T13:49:44.424Z,2.83
2023-05-24T13:50:45.914Z,3.30
2023-05-24T13:51:47.360Z,2.83
2023-05-24T13:52:48.745Z,2.63
2023-05-24T13:53:50.138Z,3.10
2023-05-24T13:54:52.272Z,3.00
2023-05-24T13:55:53.755Z,2.90
2023-05-24T13:56:57.478Z,3.33
2023-05-24T13:57:59.035Z,3.17